Main page
METAR-TAF:

METAR-TAF

Airports :

Doha, Qatar

Hamad International Airport

latitude: 25-16-23N, longitude: 51-36-29E, elevation: 4 m

Current weather observation

The report was made 41 minutes ago, at 03:00 UTC
Wind 3 kt from the Southeast, varying between East and South
Temperature 28°C
Humidity 58%
Pressure 1009 hPa
Visibility 10 km or more
no clouds below 1500 m and no cumulonimbus

METAR: OTHH 290300Z 13003KT 100V190 CAVOK 28/19 Q1009 NOSIG

Time: 06:41 (03:41 UTC)

Forecast

The report was made 4 hours and 41 minutes ago, at 23:00 UTC
Forecast valid from 29 at 00 UTC to 30 at 06 UTC
Wind 2 kt from variable directions
Visibility: 9000 m
Temporary
from 29 at 06 UTC to 29 at 21 UTC
Wind 10 kt from the East/Southeast

TAF: OTHH 282300Z 2900/3006 VRB02KT 9000 NSC TEMPO 2906/2921 12010KT

Weather observations and forecasts of more than 4000 airports (METAR and TAF reports).

The available stations are represented by yellow and red dots on the map.

Hover mouse over dot to see the name of the station.

Then click to see weather observations and forecasts.

To change the map : click on the green buttons with a black cross to zoom in, on the green button with a dash to zoom out, or on the green arrows for adjacent maps.


METAR-TAF: